Details for EasyJet at EGPH




Go Back


Latest METAR
Local Time

EGPH 221750Z 08014KT 9999 FEW019 11/07 Q1025

22/05/2018, 18:56:51

Description
Results
EasyJet Logo
Number of Pilots based at EGPH
0 Pilots Based here
Number of EasyJet Flights Departed from EGPH
5 Flights Departed
Number of EasyJet Flights Arrived at EGPH
2 Flights Arrived
Number of EasyJet Schedules Departing from EGPH
198 Schedules
Number of EasyJet Schedules Arriving at EGPH
191 Schedules
Number of EasyJet Schedules Departing from EGPH availible today
53 Schedules Today
Number of EasyJet Schedules Arriving at EGPH availible today
52 Schedules Today
Average Landing Rate at EGPH
-242 fpm
EasyJet Average Landing Rate at EGPH
-455 fpm
Total Fuel Purchased at EGPH by EasyJet
16,535.26 kgs / 36,453.63 lbs

Pilots Based at EGPH


Pilot ID
Pilot Name
Pilot Rank
No. of Flights
No. of Flying Hours
There are no pilots assigned to this hub!   Will you be the first?
Content